sensor_id;sensor_type;location;lat;lon;timestamp;temperature;humidity
11446;DHT22;5779;64.178;15.432;2022-11-11T00:02:06;2.80;99.90
11446;DHT22;5779;64.178;15.432;2022-11-11T00:04:53;2.80;99.90
11446;DHT22;5779;64.178;15.432;2022-11-11T00:07:41;3.00;99.90
11446;DHT22;5779;64.178;15.432;2022-11-11T00:10:29;2.90;99.90
11446;DHT22;5779;64.178;15.432;2022-11-11T00:13:16;3.00;99.90
11446;DHT22;5779;64.178;15.432;2022-11-11T00:16:08;2.90;99.90
11446;DHT22;5779;64.178;15.432;2022-11-11T00:18:55;2.80;99.90
11446;DHT22;5779;64.178;15.432;2022-11-11T00:22:00;2.70;99.90
11446;DHT22;5779;64.178;15.432;2022-11-11T00:25:06;2.70;99.90
11446;DHT22;5779;64.178;15.432;2022-11-11T00:27:53;2.80;99.90
11446;DHT22;5779;64.178;15.432;2022-11-11T00:30:40;2.70;99.90
11446;DHT22;5779;64.178;15.432;2022-11-11T00:33:26;2.70;99.90
11446;DHT22;5779;64.178;15.432;2022-11-11T00:36:13;2.70;99.90
11446;DHT22;5779;64.178;15.432;2022-11-11T00:39:00;2.60;99.90
11446;DHT22;5779;64.178;15.432;2022-11-11T00:41:49;2.70;99.90
11446;DHT22;5779;64.178;15.432;2022-11-11T00:44:35;2.80;99.90
11446;DHT22;5779;64.178;15.432;2022-11-11T00:47:22;2.90;99.90
11446;DHT22;5779;64.178;15.432;2022-11-11T00:50:27;2.90;99.90
11446;DHT22;5779;64.178;15.432;2022-11-11T00:53:32;2.90;99.90
11446;DHT22;5779;64.178;15.432;2022-11-11T00:56:21;2.70;99.90
11446;DHT22;5779;64.178;15.432;2022-11-11T00:59:10;2.80;99.90
11446;DHT22;5779;64.178;15.432;2022-11-11T01:01:57;2.80;99.90
11446;DHT22;5779;64.178;15.432;2022-11-11T01:04:43;2.90;99.90
11446;DHT22;5779;64.178;15.432;2022-11-11T01:07:30;3.00;99.90
11446;DHT22;5779;64.178;15.432;2022-11-11T01:10:18;3.10;99.90
11446;DHT22;5779;64.178;15.432;2022-11-11T01:13:21;3.10;99.90
11446;DHT22;5779;64.178;15.432;2022-11-11T01:16:13;3.20;99.90
11446;DHT22;5779;64.178;15.432;2022-11-11T01:19:00;3.30;99.90
11446;DHT22;5779;64.178;15.432;2022-11-11T01:21:47;3.30;99.90
11446;DHT22;5779;64.178;15.432;2022-11-11T01:24:35;3.20;99.90
11446;DHT22;5779;64.178;15.432;2022-11-11T01:27:22;3.20;99.90
11446;DHT22;5779;64.178;15.432;2022-11-11T01:30:09;3.40;99.90
11446;DHT22;5779;64.178;15.432;2022-11-11T01:33:00;3.30;99.90
11446;DHT22;5779;64.178;15.432;2022-11-11T01:35:47;3.30;99.90
11446;DHT22;5779;64.178;15.432;2022-11-11T01:38:34;3.40;99.90
11446;DHT22;5779;64.178;15.432;2022-11-11T01:41:23;3.30;99.90
11446;DHT22;5779;64.178;15.432;2022-11-11T01:44:41;3.30;99.90
11446;DHT22;5779;64.178;15.432;2022-11-11T01:47:29;3.40;99.90
11446;DHT22;5779;64.178;15.432;2022-11-11T01:50:38;3.50;99.90
11446;DHT22;5779;64.178;15.432;2022-11-11T01:53:24;3.60;99.90
11446;DHT22;5779;64.178;15.432;2022-11-11T01:56:11;3.60;99.90
11446;DHT22;5779;64.178;15.432;2022-11-11T01:59:02;3.70;99.90
11446;DHT22;5779;64.178;15.432;2022-11-11T02:01:51;3.70;99.90
11446;DHT22;5779;64.178;15.432;2022-11-11T02:04:38;3.70;99.90
11446;DHT22;5779;64.178;15.432;2022-11-11T02:07:44;3.80;99.90
11446;DHT22;5779;64.178;15.432;2022-11-11T02:10:32;3.80;99.90
11446;DHT22;5779;64.178;15.432;2022-11-11T02:13:19;3.90;99.90
11446;DHT22;5779;64.178;15.432;2022-11-11T02:16:23;3.90;99.90
11446;DHT22;5779;64.178;15.432;2022-11-11T02:19:12;3.90;99.90
11446;DHT22;5779;64.178;15.432;2022-11-11T02:22:01;3.90;99.90
11446;DHT22;5779;64.178;15.432;2022-11-11T02:24:51;3.80;99.90
11446;DHT22;5779;64.178;15.432;2022-11-11T02:27:42;3.80;99.90
11446;DHT22;5779;64.178;15.432;2022-11-11T02:30:29;3.70;99.90
11446;DHT22;5779;64.178;15.432;2022-11-11T02:33:16;3.70;99.90
11446;DHT22;5779;64.178;15.432;2022-11-11T02:36:03;3.70;99.90
11446;DHT22;5779;64.178;15.432;2022-11-11T02:38:50;3.80;99.90
11446;DHT22;5779;64.178;15.432;2022-11-11T02:41:38;3.80;99.90
11446;DHT22;5779;64.178;15.432;2022-11-11T02:44:42;3.90;99.90
11446;DHT22;5779;64.178;15.432;2022-11-11T02:47:29;3.90;99.90
11446;DHT22;5779;64.178;15.432;2022-11-11T02:50:16;4.00;99.90
11446;DHT22;5779;64.178;15.432;2022-11-11T02:53:02;4.00;99.90
11446;DHT22;5779;64.178;15.432;2022-11-11T02:55:49;4.10;99.90
11446;DHT22;5779;64.178;15.432;2022-11-11T02:58:37;4.10;99.90
11446;DHT22;5779;64.178;15.432;2022-11-11T03:01:24;4.10;99.90
11446;DHT22;5779;64.178;15.432;2022-11-11T03:04:11;4.20;99.90
11446;DHT22;5779;64.178;15.432;2022-11-11T03:06:58;4.20;99.90
11446;DHT22;5779;64.178;15.432;2022-11-11T03:09:45;4.30;99.90
11446;DHT22;5779;64.178;15.432;2022-11-11T03:12:32;4.30;99.90
11446;DHT22;5779;64.178;15.432;2022-11-11T03:15:20;4.20;99.90
11446;DHT22;5779;64.178;15.432;2022-11-11T03:18:07;4.10;99.90
11446;DHT22;5779;64.178;15.432;2022-11-11T03:20:52;4.10;99.90
11446;DHT22;5779;64.178;15.432;2022-11-11T03:23:51;4.10;99.90
11446;DHT22;5779;64.178;15.432;2022-11-11T03:26:38;4.10;99.90
11446;DHT22;5779;64.178;15.432;2022-11-11T03:29:25;4.00;99.90
11446;DHT22;5779;64.178;15.432;2022-11-11T03:32:13;4.00;99.90
11446;DHT22;5779;64.178;15.432;2022-11-11T03:35:00;3.90;99.90
11446;DHT22;5779;64.178;15.432;2022-11-11T03:37:47;3.90;99.90
11446;DHT22;5779;64.178;15.432;2022-11-11T03:40:52;3.90;99.90
11446;DHT22;5779;64.178;15.432;2022-11-11T03:43:40;3.90;99.90
11446;DHT22;5779;64.178;15.432;2022-11-11T03:46:27;3.80;99.90
11446;DHT22;5779;64.178;15.432;2022-11-11T03:49:15;3.80;99.90
11446;DHT22;5779;64.178;15.432;2022-11-11T03:52:01;3.80;99.90
11446;DHT22;5779;64.178;15.432;2022-11-11T03:54:48;3.80;99.90
11446;DHT22;5779;64.178;15.432;2022-11-11T03:57:41;3.80;99.90
11446;DHT22;5779;64.178;15.432;2022-11-11T04:00:29;3.80;99.90
11446;DHT22;5779;64.178;15.432;2022-11-11T04:03:17;3.90;99.90
11446;DHT22;5779;64.178;15.432;2022-11-11T04:06:28;4.00;99.90
11446;DHT22;5779;64.178;15.432;2022-11-11T04:09:32;4.20;99.90
11446;DHT22;5779;64.178;15.432;2022-11-11T04:12:36;4.30;99.90
11446;DHT22;5779;64.178;15.432;2022-11-11T04:15:38;4.50;99.90
11446;DHT22;5779;64.178;15.432;2022-11-11T04:18:42;4.60;99.90
11446;DHT22;5779;64.178;15.432;2022-11-11T04:21:48;4.50;99.90
11446;DHT22;5779;64.178;15.432;2022-11-11T04:24:35;4.60;99.90
11446;DHT22;5779;64.178;15.432;2022-11-11T04:27:39;4.60;99.90
11446;DHT22;5779;64.178;15.432;2022-11-11T04:30:26;4.60;99.90
11446;DHT22;5779;64.178;15.432;2022-11-11T04:33:12;4.60;99.90
11446;DHT22;5779;64.178;15.432;2022-11-11T04:35:59;4.80;99.90
11446;DHT22;5779;64.178;15.432;2022-11-11T04:38:47;5.00;99.90
11446;DHT22;5779;64.178;15.432;2022-11-11T04:41:51;5.30;99.90
11446;DHT22;5779;64.178;15.432;2022-11-11T04:44:38;5.70;99.90
11446;DHT22;5779;64.178;15.432;2022-11-11T04:47:56;5.70;99.90
11446;DHT22;5779;64.178;15.432;2022-11-11T04:50:43;6.20;99.90
11446;DHT22;5779;64.178;15.432;2022-11-11T04:53:30;6.30;99.90
11446;DHT22;5779;64.178;15.432;2022-11-11T04:56:18;6.20;99.90
11446;DHT22;5779;64.178;15.432;2022-11-11T04:59:23;6.30;99.90
11446;DHT22;5779;64.178;15.432;2022-11-11T05:02:09;6.50;99.90
11446;DHT22;5779;64.178;15.432;2022-11-11T05:05:13;6.40;99.90
11446;DHT22;5779;64.178;15.432;2022-11-11T05:08:00;6.40;99.90
11446;DHT22;5779;64.178;15.432;2022-11-11T05:11:05;6.40;99.90
11446;DHT22;5779;64.178;15.432;2022-11-11T05:13:55;6.30;99.90
11446;DHT22;5779;64.178;15.432;2022-11-11T05:17:09;6.30;99.90
11446;DHT22;5779;64.178;15.432;2022-11-11T05:20:13;6.30;99.90
11446;DHT22;5779;64.178;15.432;2022-11-11T05:23:17;6.20;99.90
11446;DHT22;5779;64.178;15.432;2022-11-11T05:26:04;6.30;99.90
11446;DHT22;5779;64.178;15.432;2022-11-11T05:28:50;6.30;99.90
11446;DHT22;5779;64.178;15.432;2022-11-11T05:31:38;6.20;99.90
11446;DHT22;5779;64.178;15.432;2022-11-11T05:34:25;6.10;99.90
11446;DHT22;5779;64.178;15.432;2022-11-11T05:37:12;6.00;99.90
11446;DHT22;5779;64.178;15.432;2022-11-11T05:39:59;6.10;99.90
11446;DHT22;5779;64.178;15.432;2022-11-11T05:42:46;6.10;99.90
11446;DHT22;5779;64.178;15.432;2022-11-11T05:45:32;6.10;99.90
11446;DHT22;5779;64.178;15.432;2022-11-11T05:48:21;6.00;99.90
11446;DHT22;5779;64.178;15.432;2022-11-11T05:51:08;6.00;99.90
11446;DHT22;5779;64.178;15.432;2022-11-11T05:54:12;6.00;99.90
11446;DHT22;5779;64.178;15.432;2022-11-11T05:56:59;6.00;99.90
11446;DHT22;5779;64.178;15.432;2022-11-11T05:59:46;6.00;99.90
11446;DHT22;5779;64.178;15.432;2022-11-11T06:02:33;6.00;99.90
11446;DHT22;5779;64.178;15.432;2022-11-11T06:05:21;5.80;99.90
11446;DHT22;5779;64.178;15.432;2022-11-11T06:08:08;5.90;99.90
11446;DHT22;5779;64.178;15.432;2022-11-11T06:10:55;5.80;99.90
11446;DHT22;5779;64.178;15.432;2022-11-11T06:13:42;5.80;99.90
11446;DHT22;5779;64.178;15.432;2022-11-11T06:16:29;5.80;99.90
11446;DHT22;5779;64.178;15.432;2022-11-11T06:19:16;5.70;99.90
11446;DHT22;5779;64.178;15.432;2022-11-11T06:22:04;5.70;99.90
11446;DHT22;5779;64.178;15.432;2022-11-11T06:24:51;5.60;99.90
11446;DHT22;5779;64.178;15.432;2022-11-11T06:27:59;5.70;99.90
11446;DHT22;5779;64.178;15.432;2022-11-11T06:30:45;5.80;99.90
11446;DHT22;5779;64.178;15.432;2022-11-11T06:33:32;5.90;99.90
11446;DHT22;5779;64.178;15.432;2022-11-11T06:36:20;5.90;99.90
11446;DHT22;5779;64.178;15.432;2022-11-11T06:39:09;5.90;99.90
11446;DHT22;5779;64.178;15.432;2022-11-11T06:41:55;5.70;99.90
11446;DHT22;5779;64.178;15.432;2022-11-11T06:44:43;5.60;99.90
11446;DHT22;5779;64.178;15.432;2022-11-11T06:47:30;5.50;99.90
11446;DHT22;5779;64.178;15.432;2022-11-11T06:50:17;5.30;99.90
11446;DHT22;5779;64.178;15.432;2022-11-11T06:53:07;5.10;99.90
11446;DHT22;5779;64.178;15.432;2022-11-11T06:55:56;5.00;99.90
11446;DHT22;5779;64.178;15.432;2022-11-11T06:58:43;5.00;99.90
11446;DHT22;5779;64.178;15.432;2022-11-11T07:01:30;5.10;99.90
11446;DHT22;5779;64.178;15.432;2022-11-11T07:04:17;5.10;99.90
11446;DHT22;5779;64.178;15.432;2022-11-11T07:07:04;5.10;99.90
11446;DHT22;5779;64.178;15.432;2022-11-11T07:09:50;5.10;99.90
11446;DHT22;5779;64.178;15.432;2022-11-11T07:12:41;5.10;99.90
11446;DHT22;5779;64.178;15.432;2022-11-11T07:15:28;5.10;99.90
11446;DHT22;5779;64.178;15.432;2022-11-11T07:18:14;5.10;99.90
11446;DHT22;5779;64.178;15.432;2022-11-11T07:21:01;5.20;99.90
11446;DHT22;5779;64.178;15.432;2022-11-11T07:23:48;5.20;99.90
11446;DHT22;5779;64.178;15.432;2022-11-11T07:26:35;5.30;99.90
11446;DHT22;5779;64.178;15.432;2022-11-11T07:29:23;5.30;99.90
11446;DHT22;5779;64.178;15.432;2022-11-11T07:32:10;5.30;99.90
11446;DHT22;5779;64.178;15.432;2022-11-11T07:34:57;5.40;99.90
11446;DHT22;5779;64.178;15.432;2022-11-11T07:37:44;5.50;99.90
11446;DHT22;5779;64.178;15.432;2022-11-11T07:40:31;5.60;99.90
11446;DHT22;5779;64.178;15.432;2022-11-11T07:43:17;5.50;99.90
11446;DHT22;5779;64.178;15.432;2022-11-11T07:46:05;5.50;99.90
11446;DHT22;5779;64.178;15.432;2022-11-11T07:48:52;5.50;99.90
11446;DHT22;5779;64.178;15.432;2022-11-11T07:51:39;5.40;99.90
11446;DHT22;5779;64.178;15.432;2022-11-11T07:54:26;5.40;99.90
11446;DHT22;5779;64.178;15.432;2022-11-11T07:57:13;5.40;99.90
11446;DHT22;5779;64.178;15.432;2022-11-11T08:00:00;5.50;99.90
11446;DHT22;5779;64.178;15.432;2022-11-11T08:02:49;5.50;99.90
11446;DHT22;5779;64.178;15.432;2022-11-11T08:05:36;5.40;99.90
11446;DHT22;5779;64.178;15.432;2022-11-11T08:08:23;5.30;99.90
11446;DHT22;5779;64.178;15.432;2022-11-11T08:11:11;5.50;99.90
11446;DHT22;5779;64.178;15.432;2022-11-11T08:13:58;5.70;99.90
11446;DHT22;5779;64.178;15.432;2022-11-11T08:16:44;5.80;99.90
11446;DHT22;5779;64.178;15.432;2022-11-11T08:19:32;5.80;99.90
11446;DHT22;5779;64.178;15.432;2022-11-11T08:22:19;5.80;99.90
11446;DHT22;5779;64.178;15.432;2022-11-11T08:25:07;5.80;99.90
11446;DHT22;5779;64.178;15.432;2022-11-11T08:27:58;5.70;99.90
11446;DHT22;5779;64.178;15.432;2022-11-11T08:30:45;5.70;99.90
11446;DHT22;5779;64.178;15.432;2022-11-11T08:33:33;5.80;99.90
11446;DHT22;5779;64.178;15.432;2022-11-11T08:36:22;6.10;99.90
11446;DHT22;5779;64.178;15.432;2022-11-11T08:39:10;6.30;99.90
11446;DHT22;5779;64.178;15.432;2022-11-11T08:41:57;6.40;99.90
11446;DHT22;5779;64.178;15.432;2022-11-11T08:44:44;6.30;99.90
11446;DHT22;5779;64.178;15.432;2022-11-11T08:47:30;6.30;99.90
11446;DHT22;5779;64.178;15.432;2022-11-11T08:50:17;6.20;99.90
11446;DHT22;5779;64.178;15.432;2022-11-11T08:53:07;6.10;99.90
11446;DHT22;5779;64.178;15.432;2022-11-11T08:55:54;6.00;99.90
11446;DHT22;5779;64.178;15.432;2022-11-11T08:58:41;6.10;99.90
11446;DHT22;5779;64.178;15.432;2022-11-11T09:01:28;6.10;99.90
11446;DHT22;5779;64.178;15.432;2022-11-11T09:04:14;6.20;99.90
11446;DHT22;5779;64.178;15.432;2022-11-11T09:07:02;6.00;99.90
11446;DHT22;5779;64.178;15.432;2022-11-11T09:09:50;6.00;99.90
11446;DHT22;5779;64.178;15.432;2022-11-11T09:12:37;6.00;99.90
11446;DHT22;5779;64.178;15.432;2022-11-11T09:15:24;6.00;99.90
11446;DHT22;5779;64.178;15.432;2022-11-11T09:18:11;6.00;99.90
11446;DHT22;5779;64.178;15.432;2022-11-11T09:20:58;5.90;99.90
11446;DHT22;5779;64.178;15.432;2022-11-11T09:23:45;5.80;99.90
11446;DHT22;5779;64.178;15.432;2022-11-11T09:26:33;5.90;99.90
11446;DHT22;5779;64.178;15.432;2022-11-11T09:29:20;5.80;99.90
11446;DHT22;5779;64.178;15.432;2022-11-11T09:32:07;5.60;99.90
11446;DHT22;5779;64.178;15.432;2022-11-11T09:34:54;5.50;99.90
11446;DHT22;5779;64.178;15.432;2022-11-11T09:37:41;5.50;99.90
11446;DHT22;5779;64.178;15.432;2022-11-11T09:40:37;5.40;99.90
11446;DHT22;5779;64.178;15.432;2022-11-11T09:43:36;5.30;99.90
11446;DHT22;5779;64.178;15.432;2022-11-11T09:46:33;5.40;99.90
11446;DHT22;5779;64.178;15.432;2022-11-11T09:49:35;5.50;99.90
11446;DHT22;5779;64.178;15.432;2022-11-11T09:52:28;5.50;99.90
11446;DHT22;5779;64.178;15.432;2022-11-11T09:55:19;5.40;99.90
11446;DHT22;5779;64.178;15.432;2022-11-11T09:58:12;5.50;99.90
11446;DHT22;5779;64.178;15.432;2022-11-11T10:01:06;5.30;99.90
11446;DHT22;5779;64.178;15.432;2022-11-11T10:03:58;5.40;99.90
11446;DHT22;5779;64.178;15.432;2022-11-11T10:06:49;5.50;99.90
11446;DHT22;5779;64.178;15.432;2022-11-11T10:09:43;5.40;99.90
11446;DHT22;5779;64.178;15.432;2022-11-11T10:12:36;5.30;99.90
11446;DHT22;5779;64.178;15.432;2022-11-11T10:15:26;5.30;99.90
11446;DHT22;5779;64.178;15.432;2022-11-11T10:18:31;5.40;99.90
11446;DHT22;5779;64.178;15.432;2022-11-11T10:21:24;5.50;99.90
11446;DHT22;5779;64.178;15.432;2022-11-11T10:24:15;5.50;99.90
11446;DHT22;5779;64.178;15.432;2022-11-11T10:27:10;5.50;99.90
11446;DHT22;5779;64.178;15.432;2022-11-11T10:30:00;5.20;99.90
11446;DHT22;5779;64.178;15.432;2022-11-11T10:32:56;5.10;99.90
11446;DHT22;5779;64.178;15.432;2022-11-11T10:35:48;5.10;99.90
11446;DHT22;5779;64.178;15.432;2022-11-11T10:38:46;5.10;99.90
11446;DHT22;5779;64.178;15.432;2022-11-11T10:41:38;5.20;99.90
11446;DHT22;5779;64.178;15.432;2022-11-11T10:44:26;5.20;99.90
11446;DHT22;5779;64.178;15.432;2022-11-11T10:47:18;5.10;99.90
11446;DHT22;5779;64.178;15.432;2022-11-11T10:50:15;5.20;99.90
11446;DHT22;5779;64.178;15.432;2022-11-11T10:53:11;4.90;99.90
11446;DHT22;5779;64.178;15.432;2022-11-11T10:56:05;4.80;99.90
11446;DHT22;5779;64.178;15.432;2022-11-11T10:58:56;4.90;99.90
11446;DHT22;5779;64.178;15.432;2022-11-11T11:01:50;4.90;99.90
11446;DHT22;5779;64.178;15.432;2022-11-11T11:04:44;5.00;99.90
11446;DHT22;5779;64.178;15.432;2022-11-11T11:07:37;5.00;99.90
11446;DHT22;5779;64.178;15.432;2022-11-11T11:10:33;5.20;99.90
11446;DHT22;5779;64.178;15.432;2022-11-11T11:13:24;5.00;99.90
11446;DHT22;5779;64.178;15.432;2022-11-11T11:16:16;4.90;99.90
11446;DHT22;5779;64.178;15.432;2022-11-11T11:19:14;5.10;99.90
11446;DHT22;5779;64.178;15.432;2022-11-11T11:22:02;5.30;99.90
11446;DHT22;5779;64.178;15.432;2022-11-11T11:24:50;5.40;99.90
11446;DHT22;5779;64.178;15.432;2022-11-11T11:27:38;5.60;99.90
11446;DHT22;5779;64.178;15.432;2022-11-11T11:30:25;6.00;99.90
11446;DHT22;5779;64.178;15.432;2022-11-11T11:33:12;6.00;99.90
11446;DHT22;5779;64.178;15.432;2022-11-11T11:36:15;6.10;99.90
11446;DHT22;5779;64.178;15.432;2022-11-11T11:39:02;6.20;99.90
11446;DHT22;5779;64.178;15.432;2022-11-11T11:41:48;6.40;99.90
11446;DHT22;5779;64.178;15.432;2022-11-11T11:44:38;6.20;99.90
11446;DHT22;5779;64.178;15.432;2022-11-11T11:47:37;6.20;99.90
11446;DHT22;5779;64.178;15.432;2022-11-11T11:50:38;6.30;99.90
11446;DHT22;5779;64.178;15.432;2022-11-11T11:53:36;6.30;99.90
11446;DHT22;5779;64.178;15.432;2022-11-11T11:56:35;6.30;99.90
11446;DHT22;5779;64.178;15.432;2022-11-11T11:59:30;6.40;99.90
11446;DHT22;5779;64.178;15.432;2022-11-11T12:02:33;6.40;99.90
11446;DHT22;5779;64.178;15.432;2022-11-11T12:05:26;6.30;99.90
11446;DHT22;5779;64.178;15.432;2022-11-11T12:08:30;6.30;99.90
11446;DHT22;5779;64.178;15.432;2022-11-11T12:11:27;6.30;99.90
11446;DHT22;5779;64.178;15.432;2022-11-11T12:14:36;6.30;99.90
11446;DHT22;5779;64.178;15.432;2022-11-11T12:17:35;6.30;99.90
11446;DHT22;5779;64.178;15.432;2022-11-11T12:20:28;6.40;99.90
11446;DHT22;5779;64.178;15.432;2022-11-11T12:23:39;6.50;99.90
11446;DHT22;5779;64.178;15.432;2022-11-11T12:26:36;6.50;99.90
11446;DHT22;5779;64.178;15.432;2022-11-11T12:29:37;6.50;99.90
11446;DHT22;5779;64.178;15.432;2022-11-11T12:32:41;6.60;99.90
11446;DHT22;5779;64.178;15.432;2022-11-11T12:35:49;6.60;99.90
11446;DHT22;5779;64.178;15.432;2022-11-11T12:38:57;6.70;99.90
11446;DHT22;5779;64.178;15.432;2022-11-11T12:41:51;6.70;99.90
11446;DHT22;5779;64.178;15.432;2022-11-11T12:44:47;6.70;99.90
11446;DHT22;5779;64.178;15.432;2022-11-11T12:47:45;6.90;99.90
11446;DHT22;5779;64.178;15.432;2022-11-11T12:50:38;7.00;99.90
11446;DHT22;5779;64.178;15.432;2022-11-11T12:53:32;6.90;99.90
11446;DHT22;5779;64.178;15.432;2022-11-11T12:56:28;6.90;99.90
11446;DHT22;5779;64.178;15.432;2022-11-11T12:59:24;6.80;99.90
11446;DHT22;5779;64.178;15.432;2022-11-11T13:05:44;7.00;99.90
11446;DHT22;5779;64.178;15.432;2022-11-11T13:09:05;7.10;99.90
11446;DHT22;5779;64.178;15.432;2022-11-11T13:12:00;7.10;99.90
11446;DHT22;5779;64.178;15.432;2022-11-11T13:15:00;7.10;99.90
11446;DHT22;5779;64.178;15.432;2022-11-11T13:17:50;7.10;99.90
11446;DHT22;5779;64.178;15.432;2022-11-11T13:20:47;7.20;99.90
11446;DHT22;5779;64.178;15.432;2022-11-11T13:23:35;7.10;99.90
11446;DHT22;5779;64.178;15.432;2022-11-11T13:26:27;7.10;99.90
11446;DHT22;5779;64.178;15.432;2022-11-11T13:32:39;7.00;99.90
11446;DHT22;5779;64.178;15.432;2022-11-11T13:35:31;6.90;99.90
11446;DHT22;5779;64.178;15.432;2022-11-11T13:38:27;6.90;99.90
11446;DHT22;5779;64.178;15.432;2022-11-11T13:41:21;6.80;99.90
11446;DHT22;5779;64.178;15.432;2022-11-11T13:44:15;6.80;99.90
11446;DHT22;5779;64.178;15.432;2022-11-11T13:47:04;6.90;99.90
11446;DHT22;5779;64.178;15.432;2022-11-11T13:49:55;7.00;99.90
11446;DHT22;5779;64.178;15.432;2022-11-11T13:52:53;7.00;99.90
11446;DHT22;5779;64.178;15.432;2022-11-11T13:55:44;7.10;99.90
11446;DHT22;5779;64.178;15.432;2022-11-11T13:58:33;7.00;99.90
11446;DHT22;5779;64.178;15.432;2022-11-11T14:01:21;7.00;99.90
11446;DHT22;5779;64.178;15.432;2022-11-11T14:04:09;7.10;99.90
11446;DHT22;5779;64.178;15.432;2022-11-11T14:06:57;7.20;99.90
11446;DHT22;5779;64.178;15.432;2022-11-11T14:09:53;7.40;99.90
11446;DHT22;5779;64.178;15.432;2022-11-11T14:12:43;7.30;99.90
11446;DHT22;5779;64.178;15.432;2022-11-11T14:15:39;7.20;99.90
11446;DHT22;5779;64.178;15.432;2022-11-11T14:18:42;7.30;99.90
11446;DHT22;5779;64.178;15.432;2022-11-11T14:21:43;7.10;99.90
11446;DHT22;5779;64.178;15.432;2022-11-11T14:24:35;7.10;99.90
11446;DHT22;5779;64.178;15.432;2022-11-11T14:27:26;7.10;99.90
11446;DHT22;5779;64.178;15.432;2022-11-11T14:30:33;7.10;99.90
11446;DHT22;5779;64.178;15.432;2022-11-11T14:36:39;6.90;99.90
11446;DHT22;5779;64.178;15.432;2022-11-11T14:39:36;6.90;99.90
11446;DHT22;5779;64.178;15.432;2022-11-11T14:42:46;6.90;99.90
11446;DHT22;5779;64.178;15.432;2022-11-11T14:46:02;6.90;99.90
11446;DHT22;5779;64.178;15.432;2022-11-11T14:48:54;6.80;99.90
11446;DHT22;5779;64.178;15.432;2022-11-11T14:51:55;6.70;99.90
11446;DHT22;5779;64.178;15.432;2022-11-11T14:55:00;6.70;99.90
11446;DHT22;5779;64.178;15.432;2022-11-11T14:57:54;6.70;99.90
11446;DHT22;5779;64.178;15.432;2022-11-11T15:00:46;6.70;99.90
11446;DHT22;5779;64.178;15.432;2022-11-11T15:03:37;6.60;99.90
11446;DHT22;5779;64.178;15.432;2022-11-11T15:06:30;6.50;99.90
11446;DHT22;5779;64.178;15.432;2022-11-11T15:09:40;6.50;99.90
11446;DHT22;5779;64.178;15.432;2022-11-11T15:12:46;6.50;99.90
11446;DHT22;5779;64.178;15.432;2022-11-11T15:15:40;6.40;99.90
11446;DHT22;5779;64.178;15.432;2022-11-11T15:18:58;6.40;99.90
11446;DHT22;5779;64.178;15.432;2022-11-11T15:21:56;6.40;99.90
11446;DHT22;5779;64.178;15.432;2022-11-11T15:24:48;6.30;99.90
11446;DHT22;5779;64.178;15.432;2022-11-11T15:27:47;6.20;99.90
11446;DHT22;5779;64.178;15.432;2022-11-11T15:30:50;6.20;99.90
11446;DHT22;5779;64.178;15.432;2022-11-11T15:33:47;6.10;99.90
11446;DHT22;5779;64.178;15.432;2022-11-11T15:36:48;6.00;99.90
11446;DHT22;5779;64.178;15.432;2022-11-11T15:39:39;6.00;99.90
11446;DHT22;5779;64.178;15.432;2022-11-11T15:42:29;6.00;99.90
11446;DHT22;5779;64.178;15.432;2022-11-11T15:45:21;6.00;99.90
11446;DHT22;5779;64.178;15.432;2022-11-11T15:48:16;6.00;99.90
11446;DHT22;5779;64.178;15.432;2022-11-11T15:51:17;5.90;99.90
11446;DHT22;5779;64.178;15.432;2022-11-11T15:54:19;5.90;99.90
11446;DHT22;5779;64.178;15.432;2022-11-11T15:57:24;5.90;99.90
11446;DHT22;5779;64.178;15.432;2022-11-11T16:00:29;5.90;99.90
11446;DHT22;5779;64.178;15.432;2022-11-11T16:03:18;5.80;99.90
11446;DHT22;5779;64.178;15.432;2022-11-11T16:06:08;5.80;99.90
11446;DHT22;5779;64.178;15.432;2022-11-11T16:08:57;5.70;99.90
11446;DHT22;5779;64.178;15.432;2022-11-11T16:11:44;5.80;99.90
11446;DHT22;5779;64.178;15.432;2022-11-11T16:14:33;5.80;99.90
11446;DHT22;5779;64.178;15.432;2022-11-11T16:17:27;5.90;99.90
11446;DHT22;5779;64.178;15.432;2022-11-11T16:20:19;6.00;99.90
11446;DHT22;5779;64.178;15.432;2022-11-11T16:23:07;5.90;99.90
11446;DHT22;5779;64.178;15.432;2022-11-11T16:25:57;5.90;99.90
11446;DHT22;5779;64.178;15.432;2022-11-11T16:28:46;5.90;99.90
11446;DHT22;5779;64.178;15.432;2022-11-11T16:31:38;5.90;99.90
11446;DHT22;5779;64.178;15.432;2022-11-11T16:34:39;5.90;99.90
11446;DHT22;5779;64.178;15.432;2022-11-11T16:37:27;5.90;99.90
11446;DHT22;5779;64.178;15.432;2022-11-11T16:40:34;5.90;99.90
11446;DHT22;5779;64.178;15.432;2022-11-11T16:43:23;5.90;99.90
11446;DHT22;5779;64.178;15.432;2022-11-11T16:46:13;6.00;99.90
11446;DHT22;5779;64.178;15.432;2022-11-11T16:49:00;6.10;99.90
11446;DHT22;5779;64.178;15.432;2022-11-11T16:52:08;6.20;99.90
11446;DHT22;5779;64.178;15.432;2022-11-11T16:54:58;6.30;99.90
11446;DHT22;5779;64.178;15.432;2022-11-11T16:57:46;6.20;99.90
11446;DHT22;5779;64.178;15.432;2022-11-11T17:00:35;6.20;99.90
11446;DHT22;5779;64.178;15.432;2022-11-11T17:03:23;6.20;99.90
11446;DHT22;5779;64.178;15.432;2022-11-11T17:06:10;6.10;99.90
11446;DHT22;5779;64.178;15.432;2022-11-11T17:08:57;6.20;99.90
11446;DHT22;5779;64.178;15.432;2022-11-11T17:11:45;6.20;99.90
11446;DHT22;5779;64.178;15.432;2022-11-11T17:14:33;6.20;99.90
11446;DHT22;5779;64.178;15.432;2022-11-11T17:17:22;6.30;99.90
11446;DHT22;5779;64.178;15.432;2022-11-11T17:20:12;6.40;99.90
11446;DHT22;5779;64.178;15.432;2022-11-11T17:23:00;6.60;99.90
11446;DHT22;5779;64.178;15.432;2022-11-11T17:25:53;6.70;99.90
11446;DHT22;5779;64.178;15.432;2022-11-11T17:28:40;6.90;99.90
11446;DHT22;5779;64.178;15.432;2022-11-11T17:31:28;7.00;99.90
11446;DHT22;5779;64.178;15.432;2022-11-11T17:34:16;7.10;99.90
11446;DHT22;5779;64.178;15.432;2022-11-11T17:37:03;7.10;99.90
11446;DHT22;5779;64.178;15.432;2022-11-11T17:39:49;7.00;99.90
11446;DHT22;5779;64.178;15.432;2022-11-11T17:42:37;7.10;99.90
11446;DHT22;5779;64.178;15.432;2022-11-11T17:45:24;7.00;99.90
11446;DHT22;5779;64.178;15.432;2022-11-11T17:48:11;7.00;99.90
11446;DHT22;5779;64.178;15.432;2022-11-11T17:51:02;7.00;99.90
11446;DHT22;5779;64.178;15.432;2022-11-11T17:53:49;7.00;99.90
11446;DHT22;5779;64.178;15.432;2022-11-11T17:56:36;6.90;99.90
11446;DHT22;5779;64.178;15.432;2022-11-11T17:59:24;6.90;99.90
11446;DHT22;5779;64.178;15.432;2022-11-11T18:02:12;6.90;99.90
11446;DHT22;5779;64.178;15.432;2022-11-11T18:04:59;6.90;99.90
11446;DHT22;5779;64.178;15.432;2022-11-11T18:07:48;6.90;99.90
11446;DHT22;5779;64.178;15.432;2022-11-11T18:10:35;6.90;99.90
11446;DHT22;5779;64.178;15.432;2022-11-11T18:13:23;6.90;99.90
11446;DHT22;5779;64.178;15.432;2022-11-11T18:16:13;6.90;99.90
11446;DHT22;5779;64.178;15.432;2022-11-11T18:19:01;6.90;99.90
11446;DHT22;5779;64.178;15.432;2022-11-11T18:21:48;6.90;99.90
11446;DHT22;5779;64.178;15.432;2022-11-11T18:24:37;6.90;99.90
11446;DHT22;5779;64.178;15.432;2022-11-11T18:27:23;6.80;99.90
11446;DHT22;5779;64.178;15.432;2022-11-11T18:30:13;6.80;99.90
11446;DHT22;5779;64.178;15.432;2022-11-11T18:33:02;6.80;99.90